sensor_id;sensor_type;location;lat;lon;timestamp;pressure;altitude;pressure_sealevel;temperature;humidity
67740;BME280;54536;50.090;14.420;2023-07-31T00:00:46;99298.63;;;20.23;52.08
67740;BME280;54536;50.090;14.420;2023-07-31T00:03:27;99299.03;;;20.27;52.11
67740;BME280;54536;50.090;14.420;2023-07-31T00:05:53;99299.66;;;20.22;52.72
67740;BME280;54536;50.090;14.420;2023-07-31T00:08:19;99294.47;;;20.14;53.28
67740;BME280;54536;50.090;14.420;2023-07-31T00:10:45;99292.28;;;20.24;53.17
67740;BME280;54536;50.090;14.420;2023-07-31T00:13:12;99297.94;;;20.01;54.12
67740;BME280;54536;50.090;14.420;2023-07-31T00:15:38;99308.78;;;19.93;54.66
67740;BME280;54536;50.090;14.420;2023-07-31T00:18:04;99301.16;;;19.90;55.26
67740;BME280;54536;50.090;14.420;2023-07-31T00:20:30;99302.00;;;19.97;55.40
67740;BME280;54536;50.090;14.420;2023-07-31T00:22:56;99300.13;;;19.91;55.49
67740;BME280;54536;50.090;14.420;2023-07-31T00:25:22;99300.50;;;19.81;55.63
67740;BME280;54536;50.090;14.420;2023-07-31T00:27:48;99297.59;;;19.70;55.53
67740;BME280;54536;50.090;14.420;2023-07-31T00:30:15;99297.34;;;19.64;55.83
67740;BME280;54536;50.090;14.420;2023-07-31T00:32:42;99301.53;;;19.80;55.04
67740;BME280;54536;50.090;14.420;2023-07-31T00:35:08;99290.47;;;19.83;54.91
67740;BME280;54536;50.090;14.420;2023-07-31T00:37:34;99302.34;;;19.81;54.98
67740;BME280;54536;50.090;14.420;2023-07-31T00:40:00;99301.38;;;19.88;54.94
67740;BME280;54536;50.090;14.420;2023-07-31T00:42:26;99297.81;;;19.75;55.23
67740;BME280;54536;50.090;14.420;2023-07-31T00:44:53;99301.31;;;19.75;55.68
67740;BME280;54536;50.090;14.420;2023-07-31T00:47:19;99298.09;;;19.58;54.76
67740;BME280;54536;50.090;14.420;2023-07-31T00:49:46;99298.56;;;19.62;53.89
67740;BME280;54536;50.090;14.420;2023-07-31T00:52:12;99298.69;;;19.82;54.09
67740;BME280;54536;50.090;14.420;2023-07-31T00:54:39;99291.91;;;19.79;53.93
67740;BME280;54536;50.090;14.420;2023-07-31T00:57:06;99293.56;;;19.87;53.97
67740;BME280;54536;50.090;14.420;2023-07-31T00:59:34;99293.09;;;19.77;53.91
67740;BME280;54536;50.090;14.420;2023-07-31T01:02:00;99293.28;;;19.69;53.82
67740;BME280;54536;50.090;14.420;2023-07-31T01:04:27;99302.88;;;19.63;53.01
67740;BME280;54536;50.090;14.420;2023-07-31T01:07:01;99302.34;;;19.81;52.48
67740;BME280;54536;50.090;14.420;2023-07-31T01:12:15;99292.44;;;19.68;52.72
67740;BME280;54536;50.090;14.420;2023-07-31T01:17:27;99285.88;;;19.71;52.67
67740;BME280;54536;50.090;14.420;2023-07-31T01:20:00;99288.28;;;19.59;52.27
67740;BME280;54536;50.090;14.420;2023-07-31T01:28:28;99279.44;;;19.58;52.56
67740;BME280;54536;50.090;14.420;2023-07-31T01:31:00;99277.38;;;19.54;52.55
67740;BME280;54536;50.090;14.420;2023-07-31T01:33:28;99267.72;;;19.53;52.52
67740;BME280;54536;50.090;14.420;2023-07-31T01:35:56;99266.88;;;19.46;52.07
67740;BME280;54536;50.090;14.420;2023-07-31T01:38:22;99270.53;;;19.45;52.17
67740;BME280;54536;50.090;14.420;2023-07-31T01:40:52;99259.41;;;19.34;52.62
67740;BME280;54536;50.090;14.420;2023-07-31T01:43:19;99256.00;;;19.47;52.23
67740;BME280;54536;50.090;14.420;2023-07-31T01:45:46;99252.91;;;19.44;51.99
67740;BME280;54536;50.090;14.420;2023-07-31T01:48:12;99257.38;;;19.36;51.79
67740;BME280;54536;50.090;14.420;2023-07-31T01:50:38;99247.56;;;19.44;51.60
67740;BME280;54536;50.090;14.420;2023-07-31T01:53:04;99253.53;;;19.46;50.78
67740;BME280;54536;50.090;14.420;2023-07-31T01:55:30;99247.97;;;19.40;51.25
67740;BME280;54536;50.090;14.420;2023-07-31T01:57:56;99246.94;;;19.41;51.68
67740;BME280;54536;50.090;14.420;2023-07-31T02:00:23;99244.66;;;19.38;51.49
67740;BME280;54536;50.090;14.420;2023-07-31T02:02:49;99241.16;;;19.38;51.44
67740;BME280;54536;50.090;14.420;2023-07-31T02:05:15;99243.44;;;19.41;51.39
67740;BME280;54536;50.090;14.420;2023-07-31T02:07:41;99243.72;;;19.18;52.41
67740;BME280;54536;50.090;14.420;2023-07-31T02:10:08;99240.91;;;19.26;51.38
67740;BME280;54536;50.090;14.420;2023-07-31T02:12:36;99242.59;;;19.34;51.37
67740;BME280;54536;50.090;14.420;2023-07-31T02:15:03;99235.38;;;19.28;51.68
67740;BME280;54536;50.090;14.420;2023-07-31T02:17:29;99239.50;;;19.30;51.62
67740;BME280;54536;50.090;14.420;2023-07-31T02:19:56;99244.25;;;19.41;51.28
67740;BME280;54536;50.090;14.420;2023-07-31T02:22:22;99237.91;;;19.36;51.47
67740;BME280;54536;50.090;14.420;2023-07-31T02:24:48;99237.22;;;19.27;51.02
67740;BME280;54536;50.090;14.420;2023-07-31T02:27:14;99237.72;;;19.09;51.40
67740;BME280;54536;50.090;14.420;2023-07-31T02:29:41;99239.59;;;19.15;51.39
67740;BME280;54536;50.090;14.420;2023-07-31T02:32:07;99237.75;;;19.16;51.26
67740;BME280;54536;50.090;14.420;2023-07-31T02:34:33;99235.81;;;19.31;51.22
67740;BME280;54536;50.090;14.420;2023-07-31T02:36:59;99241.94;;;19.32;51.28
67740;BME280;54536;50.090;14.420;2023-07-31T02:39:28;99245.41;;;19.26;50.94
67740;BME280;54536;50.090;14.420;2023-07-31T02:41:54;99243.19;;;19.29;51.46
67740;BME280;54536;50.090;14.420;2023-07-31T02:44:21;99238.63;;;19.23;51.06
67740;BME280;54536;50.090;14.420;2023-07-31T02:46:47;99236.94;;;19.15;51.31
67740;BME280;54536;50.090;14.420;2023-07-31T02:49:13;99238.22;;;19.20;51.46
67740;BME280;54536;50.090;14.420;2023-07-31T02:51:39;99237.66;;;19.03;51.84
67740;BME280;54536;50.090;14.420;2023-07-31T02:54:06;99229.56;;;19.17;51.59
67740;BME280;54536;50.090;14.420;2023-07-31T02:56:32;99235.00;;;19.03;51.78
67740;BME280;54536;50.090;14.420;2023-07-31T02:58:58;99228.03;;;19.02;52.38
67740;BME280;54536;50.090;14.420;2023-07-31T03:01:24;99239.28;;;18.97;51.90
67740;BME280;54536;50.090;14.420;2023-07-31T03:03:50;99243.84;;;19.03;51.91
67740;BME280;54536;50.090;14.420;2023-07-31T03:06:16;99237.88;;;19.01;51.92
67740;BME280;54536;50.090;14.420;2023-07-31T03:08:43;99237.09;;;19.07;51.79
67740;BME280;54536;50.090;14.420;2023-07-31T03:11:09;99238.50;;;19.03;51.58
67740;BME280;54536;50.090;14.420;2023-07-31T03:13:35;99239.84;;;18.92;52.17
67740;BME280;54536;50.090;14.420;2023-07-31T03:16:01;99239.69;;;18.94;51.52
67740;BME280;54536;50.090;14.420;2023-07-31T03:18:27;99225.97;;;18.97;51.99
67740;BME280;54536;50.090;14.420;2023-07-31T03:20:53;99240.69;;;18.93;51.62
67740;BME280;54536;50.090;14.420;2023-07-31T03:23:20;99240.00;;;18.84;52.22
67740;BME280;54536;50.090;14.420;2023-07-31T03:25:57;99245.44;;;18.98;52.39
67740;BME280;54536;50.090;14.420;2023-07-31T03:28:24;99241.69;;;18.92;52.30
67740;BME280;54536;50.090;14.420;2023-07-31T03:30:51;99240.34;;;18.75;52.42
67740;BME280;54536;50.090;14.420;2023-07-31T03:33:18;99230.59;;;18.88;52.18
67740;BME280;54536;50.090;14.420;2023-07-31T03:35:45;99223.03;;;18.92;52.22
67740;BME280;54536;50.090;14.420;2023-07-31T03:38:12;99233.91;;;18.90;52.17
67740;BME280;54536;50.090;14.420;2023-07-31T03:40:38;99233.81;;;18.77;52.51
67740;BME280;54536;50.090;14.420;2023-07-31T03:43:05;99232.53;;;18.73;52.68
67740;BME280;54536;50.090;14.420;2023-07-31T03:45:31;99232.19;;;18.83;52.18
67740;BME280;54536;50.090;14.420;2023-07-31T03:47:57;99243.06;;;18.81;52.50
67740;BME280;54536;50.090;14.420;2023-07-31T03:50:23;99239.75;;;18.79;52.25
67740;BME280;54536;50.090;14.420;2023-07-31T03:52:52;99241.34;;;18.74;52.59
67740;BME280;54536;50.090;14.420;2023-07-31T03:55:18;99242.09;;;18.89;52.65
67740;BME280;54536;50.090;14.420;2023-07-31T03:57:44;99251.50;;;18.85;52.16
67740;BME280;54536;50.090;14.420;2023-07-31T04:00:11;99252.19;;;18.93;52.24
67740;BME280;54536;50.090;14.420;2023-07-31T04:02:37;99244.38;;;18.92;52.57
67740;BME280;54536;50.090;14.420;2023-07-31T04:05:03;99256.44;;;18.88;52.76
67740;BME280;54536;50.090;14.420;2023-07-31T04:07:30;99260.25;;;18.79;52.64
67740;BME280;54536;50.090;14.420;2023-07-31T04:09:57;99248.66;;;18.93;52.77
67740;BME280;54536;50.090;14.420;2023-07-31T04:12:23;99252.13;;;18.87;53.03
67740;BME280;54536;50.090;14.420;2023-07-31T04:14:52;99242.72;;;18.91;52.45
67740;BME280;54536;50.090;14.420;2023-07-31T04:17:18;99241.97;;;18.97;52.41
67740;BME280;54536;50.090;14.420;2023-07-31T04:19:44;99237.44;;;18.98;52.81
67740;BME280;54536;50.090;14.420;2023-07-31T04:22:11;99242.19;;;19.02;52.81
67740;BME280;54536;50.090;14.420;2023-07-31T04:24:37;99241.13;;;18.97;52.64
67740;BME280;54536;50.090;14.420;2023-07-31T04:27:03;99238.16;;;19.13;52.03
67740;BME280;54536;50.090;14.420;2023-07-31T04:29:30;99243.25;;;19.08;52.68
67740;BME280;54536;50.090;14.420;2023-07-31T04:31:56;99237.72;;;19.09;52.65
67740;BME280;54536;50.090;14.420;2023-07-31T04:34:22;99239.16;;;19.12;52.51
67740;BME280;54536;50.090;14.420;2023-07-31T04:36:48;99239.34;;;19.04;52.35
67740;BME280;54536;50.090;14.420;2023-07-31T04:39:14;99240.28;;;18.96;52.78
67740;BME280;54536;50.090;14.420;2023-07-31T04:41:41;99238.25;;;18.98;52.65
67740;BME280;54536;50.090;14.420;2023-07-31T04:44:07;99235.69;;;19.11;52.00
67740;BME280;54536;50.090;14.420;2023-07-31T04:46:33;99242.22;;;19.09;51.93
67740;BME280;54536;50.090;14.420;2023-07-31T04:49:00;99240.41;;;19.16;51.53
67740;BME280;54536;50.090;14.420;2023-07-31T04:51:26;99241.88;;;19.18;52.09
67740;BME280;54536;50.090;14.420;2023-07-31T04:53:52;99240.19;;;19.11;52.14
67740;BME280;54536;50.090;14.420;2023-07-31T04:56:19;99241.78;;;19.05;52.40
67740;BME280;54536;50.090;14.420;2023-07-31T04:58:45;99244.66;;;19.04;52.46
67740;BME280;54536;50.090;14.420;2023-07-31T05:01:11;99236.06;;;19.08;52.46
67740;BME280;54536;50.090;14.420;2023-07-31T05:03:37;99242.91;;;19.17;52.10
67740;BME280;54536;50.090;14.420;2023-07-31T05:06:03;99249.06;;;19.18;52.41
67740;BME280;54536;50.090;14.420;2023-07-31T05:08:29;99249.47;;;19.22;52.34
67740;BME280;54536;50.090;14.420;2023-07-31T05:10:56;99248.06;;;19.26;52.07
67740;BME280;54536;50.090;14.420;2023-07-31T05:13:22;99253.03;;;19.35;52.93
67740;BME280;54536;50.090;14.420;2023-07-31T05:15:48;99248.38;;;19.44;52.03
67740;BME280;54536;50.090;14.420;2023-07-31T05:18:15;99254.91;;;19.35;52.27
67740;BME280;54536;50.090;14.420;2023-07-31T05:20:41;99245.72;;;19.44;52.49
67740;BME280;54536;50.090;14.420;2023-07-31T05:23:07;99246.72;;;19.36;52.10
67740;BME280;54536;50.090;14.420;2023-07-31T05:25:34;99245.34;;;19.54;52.16
67740;BME280;54536;50.090;14.420;2023-07-31T05:28:00;99249.41;;;19.43;52.38
67740;BME280;54536;50.090;14.420;2023-07-31T05:30:26;99243.09;;;19.51;52.06
67740;BME280;54536;50.090;14.420;2023-07-31T05:32:52;99249.69;;;19.61;52.06
67740;BME280;54536;50.090;14.420;2023-07-31T05:35:19;99245.78;;;19.57;52.09
67740;BME280;54536;50.090;14.420;2023-07-31T05:37:45;99247.72;;;19.70;52.05
67740;BME280;54536;50.090;14.420;2023-07-31T05:40:11;99253.69;;;19.72;51.42
67740;BME280;54536;50.090;14.420;2023-07-31T05:42:37;99242.63;;;19.75;51.80
67740;BME280;54536;50.090;14.420;2023-07-31T05:45:06;99243.44;;;19.76;51.10
67740;BME280;54536;50.090;14.420;2023-07-31T05:47:33;99235.25;;;19.84;51.29
67740;BME280;54536;50.090;14.420;2023-07-31T05:49:59;99240.38;;;19.79;51.50
67740;BME280;54536;50.090;14.420;2023-07-31T05:52:25;99245.28;;;19.75;51.03
67740;BME280;54536;50.090;14.420;2023-07-31T05:54:52;99243.22;;;19.77;51.18
67740;BME280;54536;50.090;14.420;2023-07-31T05:57:18;99238.94;;;19.76;51.41
67740;BME280;54536;50.090;14.420;2023-07-31T05:59:44;99239.38;;;19.93;51.20
67740;BME280;54536;50.090;14.420;2023-07-31T06:02:10;99237.75;;;19.92;51.17
67740;BME280;54536;50.090;14.420;2023-07-31T06:04:36;99231.59;;;19.92;51.15
67740;BME280;54536;50.090;14.420;2023-07-31T06:07:03;99226.06;;;20.06;50.58
67740;BME280;54536;50.090;14.420;2023-07-31T06:09:30;99229.56;;;20.07;50.86
67740;BME280;54536;50.090;14.420;2023-07-31T06:11:57;99219.28;;;20.04;50.69
67740;BME280;54536;50.090;14.420;2023-07-31T06:14:23;99216.63;;;20.04;50.68
67740;BME280;54536;50.090;14.420;2023-07-31T06:16:49;99206.97;;;20.03;50.88
67740;BME280;54536;50.090;14.420;2023-07-31T06:19:15;99213.56;;;20.07;50.72
67740;BME280;54536;50.090;14.420;2023-07-31T06:21:41;99216.88;;;20.29;50.29
67740;BME280;54536;50.090;14.420;2023-07-31T06:24:09;99207.84;;;20.37;50.18
67740;BME280;54536;50.090;14.420;2023-07-31T06:26:35;99203.94;;;20.46;49.64
67740;BME280;54536;50.090;14.420;2023-07-31T06:29:01;99197.41;;;20.55;49.39
67740;BME280;54536;50.090;14.420;2023-07-31T06:31:30;99193.28;;;20.52;49.63
67740;BME280;54536;50.090;14.420;2023-07-31T06:33:56;99192.47;;;20.52;50.17
67740;BME280;54536;50.090;14.420;2023-07-31T06:36:24;99182.63;;;20.52;49.72
67740;BME280;54536;50.090;14.420;2023-07-31T06:38:51;99188.16;;;20.71;49.47
67740;BME280;54536;50.090;14.420;2023-07-31T06:41:17;99191.44;;;20.66;49.35
67740;BME280;54536;50.090;14.420;2023-07-31T06:43:43;99200.28;;;20.73;49.16
67740;BME280;54536;50.090;14.420;2023-07-31T06:46:09;99189.78;;;20.72;48.34
67740;BME280;54536;50.090;14.420;2023-07-31T06:48:37;99187.53;;;20.82;48.42
67740;BME280;54536;50.090;14.420;2023-07-31T06:51:03;99184.84;;;20.82;48.00
67740;BME280;54536;50.090;14.420;2023-07-31T06:53:29;99183.84;;;20.76;47.70
67740;BME280;54536;50.090;14.420;2023-07-31T06:55:56;99200.88;;;20.95;47.40
67740;BME280;54536;50.090;14.420;2023-07-31T06:58:22;99205.41;;;20.88;47.76
67740;BME280;54536;50.090;14.420;2023-07-31T07:00:51;99201.50;;;20.84;48.25
67740;BME280;54536;50.090;14.420;2023-07-31T07:03:18;99193.69;;;20.83;48.02
67740;BME280;54536;50.090;14.420;2023-07-31T07:05:44;99191.00;;;20.83;47.79
67740;BME280;54536;50.090;14.420;2023-07-31T07:08:11;99196.75;;;20.86;48.05
67740;BME280;54536;50.090;14.420;2023-07-31T07:10:37;99189.19;;;20.90;47.51
67740;BME280;54536;50.090;14.420;2023-07-31T07:13:03;99187.91;;;20.92;47.35
67740;BME280;54536;50.090;14.420;2023-07-31T07:15:30;99187.09;;;20.92;46.80
67740;BME280;54536;50.090;14.420;2023-07-31T07:17:57;99184.00;;;21.01;47.21
67740;BME280;54536;50.090;14.420;2023-07-31T07:20:23;99187.72;;;21.00;47.35
67740;BME280;54536;50.090;14.420;2023-07-31T07:22:50;99190.56;;;20.99;47.46
67740;BME280;54536;50.090;14.420;2023-07-31T07:25:16;99185.41;;;21.11;47.17
67740;BME280;54536;50.090;14.420;2023-07-31T07:27:42;99188.50;;;21.14;47.17
67740;BME280;54536;50.090;14.420;2023-07-31T07:30:09;99187.69;;;21.07;46.84
67740;BME280;54536;50.090;14.420;2023-07-31T07:32:35;99187.06;;;21.12;47.23
67740;BME280;54536;50.090;14.420;2023-07-31T07:35:01;99187.63;;;21.27;47.50
67740;BME280;54536;50.090;14.420;2023-07-31T07:37:28;99186.59;;;21.28;46.87
67740;BME280;54536;50.090;14.420;2023-07-31T07:39:54;99190.31;;;21.27;47.24
67740;BME280;54536;50.090;14.420;2023-07-31T07:42:20;99181.25;;;21.35;46.94
67740;BME280;54536;50.090;14.420;2023-07-31T07:44:46;99188.66;;;21.33;46.58
67740;BME280;54536;50.090;14.420;2023-07-31T07:47:13;99189.31;;;21.15;47.41
67740;BME280;54536;50.090;14.420;2023-07-31T07:49:39;99188.03;;;21.31;47.01
67740;BME280;54536;50.090;14.420;2023-07-31T07:52:06;99198.13;;;21.35;46.89
67740;BME280;54536;50.090;14.420;2023-07-31T07:54:32;99198.28;;;21.47;46.88
67740;BME280;54536;50.090;14.420;2023-07-31T07:56:59;99200.16;;;21.46;47.00
67740;BME280;54536;50.090;14.420;2023-07-31T07:59:25;99194.59;;;21.41;46.34
67740;BME280;54536;50.090;14.420;2023-07-31T08:01:51;99207.75;;;21.49;47.03
67740;BME280;54536;50.090;14.420;2023-07-31T08:04:17;99210.69;;;21.35;46.44
67740;BME280;54536;50.090;14.420;2023-07-31T08:06:44;99206.16;;;21.22;46.95
67740;BME280;54536;50.090;14.420;2023-07-31T08:09:10;99198.31;;;21.40;46.50
67740;BME280;54536;50.090;14.420;2023-07-31T08:11:36;99194.81;;;21.40;46.69
67740;BME280;54536;50.090;14.420;2023-07-31T08:14:02;99203.03;;;21.32;46.94
67740;BME280;54536;50.090;14.420;2023-07-31T08:16:29;99199.53;;;21.44;46.75
67740;BME280;54536;50.090;14.420;2023-07-31T08:18:55;99199.38;;;21.39;46.78
67740;BME280;54536;50.090;14.420;2023-07-31T08:21:22;99203.25;;;21.30;47.56
67740;BME280;54536;50.090;14.420;2023-07-31T08:23:48;99209.66;;;21.36;47.44
67740;BME280;54536;50.090;14.420;2023-07-31T08:26:16;99216.44;;;21.38;47.70
67740;BME280;54536;50.090;14.420;2023-07-31T08:28:43;99211.47;;;21.28;47.46
67740;BME280;54536;50.090;14.420;2023-07-31T08:31:09;99205.13;;;21.30;48.07
67740;BME280;54536;50.090;14.420;2023-07-31T08:33:37;99199.56;;;21.24;47.59
67740;BME280;54536;50.090;14.420;2023-07-31T08:36:03;99201.81;;;21.27;47.59
67740;BME280;54536;50.090;14.420;2023-07-31T08:38:30;99196.91;;;21.24;47.80
67740;BME280;54536;50.090;14.420;2023-07-31T08:41:00;99208.00;;;21.21;47.99
67740;BME280;54536;50.090;14.420;2023-07-31T08:43:30;99209.25;;;21.25;48.03
67740;BME280;54536;50.090;14.420;2023-07-31T08:45:57;99202.44;;;21.30;47.71
67740;BME280;54536;50.090;14.420;2023-07-31T08:48:24;99207.38;;;21.39;48.06
67740;BME280;54536;50.090;14.420;2023-07-31T08:50:52;99199.56;;;21.38;47.88
67740;BME280;54536;50.090;14.420;2023-07-31T08:53:19;99200.38;;;21.38;47.67
67740;BME280;54536;50.090;14.420;2023-07-31T08:55:46;99200.34;;;21.45;47.79
67740;BME280;54536;50.090;14.420;2023-07-31T08:58:15;99203.03;;;21.32;48.07
67740;BME280;54536;50.090;14.420;2023-07-31T09:00:46;99200.19;;;21.40;47.88
67740;BME280;54536;50.090;14.420;2023-07-31T09:03:17;99189.66;;;21.38;48.40
67740;BME280;54536;50.090;14.420;2023-07-31T09:05:46;99202.81;;;21.46;47.78
67740;BME280;54536;50.090;14.420;2023-07-31T09:08:15;99199.72;;;21.49;48.24
67740;BME280;54536;50.090;14.420;2023-07-31T09:10:45;99194.56;;;21.55;47.93
67740;BME280;54536;50.090;14.420;2023-07-31T09:13:16;99204.44;;;21.54;48.09
67740;BME280;54536;50.090;14.420;2023-07-31T09:15:44;99200.75;;;21.55;47.81
67740;BME280;54536;50.090;14.420;2023-07-31T09:18:12;99201.34;;;21.57;48.17
67740;BME280;54536;50.090;14.420;2023-07-31T09:20:38;99197.78;;;21.70;47.82
67740;BME280;54536;50.090;14.420;2023-07-31T09:23:12;99207.44;;;21.71;48.32
67740;BME280;54536;50.090;14.420;2023-07-31T09:25:43;99201.91;;;21.72;48.03
67740;BME280;54536;50.090;14.420;2023-07-31T09:28:11;99205.13;;;21.88;47.98
67740;BME280;54536;50.090;14.420;2023-07-31T09:30:49;99200.38;;;21.83;47.96
67740;BME280;54536;50.090;14.420;2023-07-31T09:33:17;99194.38;;;21.94;47.43
67740;BME280;54536;50.090;14.420;2023-07-31T09:35:43;99193.69;;;22.06;47.51
67740;BME280;54536;50.090;14.420;2023-07-31T09:38:12;99187.22;;;22.13;47.37
67740;BME280;54536;50.090;14.420;2023-07-31T09:40:41;99193.00;;;22.17;47.55
67740;BME280;54536;50.090;14.420;2023-07-31T09:43:19;99187.44;;;22.18;47.20
67740;BME280;54536;50.090;14.420;2023-07-31T09:45:47;99182.00;;;22.32;47.58
67740;BME280;54536;50.090;14.420;2023-07-31T09:48:15;99183.75;;;22.44;46.95
67740;BME280;54536;50.090;14.420;2023-07-31T09:50:44;99154.53;;;22.61;46.79
67740;BME280;54536;50.090;14.420;2023-07-31T09:53:11;99159.22;;;22.66;46.26
67740;BME280;54536;50.090;14.420;2023-07-31T09:55:39;99151.66;;;22.81;46.33
67740;BME280;54536;50.090;14.420;2023-07-31T09:58:08;99154.72;;;22.85;46.29
67740;BME280;54536;50.090;14.420;2023-07-31T10:00:36;99148.28;;;23.11;45.79
67740;BME280;54536;50.090;14.420;2023-07-31T10:03:08;99135.00;;;23.34;45.14
67740;BME280;54536;50.090;14.420;2023-07-31T10:05:36;99136.97;;;23.57;44.80
67740;BME280;54536;50.090;14.420;2023-07-31T10:08:04;99134.88;;;23.59;44.06
67740;BME280;54536;50.090;14.420;2023-07-31T10:10:32;99134.59;;;23.68;44.44
67740;BME280;54536;50.090;14.420;2023-07-31T10:13:01;99122.25;;;23.78;43.84
67740;BME280;54536;50.090;14.420;2023-07-31T10:15:28;99120.91;;;23.88;44.95
67740;BME280;54536;50.090;14.420;2023-07-31T10:17:56;99113.50;;;23.83;44.15
67740;BME280;54536;50.090;14.420;2023-07-31T10:20:24;99106.06;;;23.85;43.64
67740;BME280;54536;50.090;14.420;2023-07-31T10:22:54;99111.19;;;23.87;42.89
67740;BME280;54536;50.090;14.420;2023-07-31T10:25:22;99109.81;;;23.84;42.93
67740;BME280;54536;50.090;14.420;2023-07-31T10:27:49;99102.09;;;23.88;43.58
67740;BME280;54536;50.090;14.420;2023-07-31T10:30:18;99098.72;;;23.92;42.84
67740;BME280;54536;50.090;14.420;2023-07-31T10:32:47;99097.94;;;24.15;42.12
67740;BME280;54536;50.090;14.420;2023-07-31T10:35:17;99095.25;;;24.27;43.47
67740;BME280;54536;50.090;14.420;2023-07-31T10:37:44;99089.06;;;24.26;42.17
67740;BME280;54536;50.090;14.420;2023-07-31T10:42:48;99086.06;;;24.46;42.19
67740;BME280;54536;50.090;14.420;2023-07-31T10:45:31;99085.09;;;24.29;42.05
67740;BME280;54536;50.090;14.420;2023-07-31T10:48:00;99086.03;;;24.35;42.26
67740;BME280;54536;50.090;14.420;2023-07-31T10:50:28;99082.88;;;24.38;41.79
67740;BME280;54536;50.090;14.420;2023-07-31T10:52:56;99072.25;;;24.55;41.76
67740;BME280;54536;50.090;14.420;2023-07-31T10:55:32;99077.63;;;24.66;41.33
67740;BME280;54536;50.090;14.420;2023-07-31T10:58:07;99070.13;;;24.80;41.45
67740;BME280;54536;50.090;14.420;2023-07-31T11:00:40;99057.38;;;24.87;40.86
67740;BME280;54536;50.090;14.420;2023-07-31T11:03:13;99057.13;;;24.89;40.85
67740;BME280;54536;50.090;14.420;2023-07-31T11:05:52;99053.41;;;24.78;39.91
67740;BME280;54536;50.090;14.420;2023-07-31T11:08:24;99057.38;;;24.87;40.28
67740;BME280;54536;50.090;14.420;2023-07-31T11:11:06;99060.31;;;24.74;40.35
67740;BME280;54536;50.090;14.420;2023-07-31T11:13:49;99054.22;;;24.79;40.19
67740;BME280;54536;50.090;14.420;2023-07-31T11:16:20;99051.78;;;24.77;40.12
67740;BME280;54536;50.090;14.420;2023-07-31T11:18:48;99050.69;;;24.90;40.15
67740;BME280;54536;50.090;14.420;2023-07-31T11:21:17;99044.97;;;24.86;40.15
67740;BME280;54536;50.090;14.420;2023-07-31T11:23:49;99045.81;;;24.75;40.49
67740;BME280;54536;50.090;14.420;2023-07-31T11:26:17;99046.19;;;24.67;40.43
67740;BME280;54536;50.090;14.420;2023-07-31T11:28:46;99051.91;;;24.59;41.04
67740;BME280;54536;50.090;14.420;2023-07-31T11:31:13;99040.69;;;24.73;40.38
67740;BME280;54536;50.090;14.420;2023-07-31T11:33:39;99042.97;;;24.82;40.55
67740;BME280;54536;50.090;14.420;2023-07-31T11:36:05;99038.63;;;25.33;40.07
67740;BME280;54536;50.090;14.420;2023-07-31T11:38:33;99036.91;;;25.27;39.35
67740;BME280;54536;50.090;14.420;2023-07-31T11:41:02;99039.69;;;25.32;39.41
67740;BME280;54536;50.090;14.420;2023-07-31T11:43:29;99033.41;;;25.26;38.92
67740;BME280;54536;50.090;14.420;2023-07-31T11:45:58;99046.88;;;25.14;39.56
67740;BME280;54536;50.090;14.420;2023-07-31T11:48:36;99039.25;;;25.11;39.54
67740;BME280;54536;50.090;14.420;2023-07-31T11:51:08;99045.78;;;25.27;39.20
67740;BME280;54536;50.090;14.420;2023-07-31T11:53:45;99034.66;;;25.35;39.11
67740;BME280;54536;50.090;14.420;2023-07-31T11:56:17;99025.03;;;25.39;38.80
67740;BME280;54536;50.090;14.420;2023-07-31T11:58:47;99024.97;;;25.51;39.47
67740;BME280;54536;50.090;14.420;2023-07-31T12:01:15;99022.34;;;25.56;38.54
67740;BME280;54536;50.090;14.420;2023-07-31T12:03:45;99015.00;;;25.35;38.70
67740;BME280;54536;50.090;14.420;2023-07-31T12:06:12;99019.84;;;25.21;39.39
67740;BME280;54536;50.090;14.420;2023-07-31T12:08:38;99014.81;;;25.25;38.74
67740;BME280;54536;50.090;14.420;2023-07-31T12:11:07;99012.53;;;25.33;38.55
67740;BME280;54536;50.090;14.420;2023-07-31T12:13:35;99010.72;;;25.22;38.70
67740;BME280;54536;50.090;14.420;2023-07-31T12:16:03;99007.38;;;25.15;39.50
67740;BME280;54536;50.090;14.420;2023-07-31T12:18:36;99009.47;;;25.13;39.12
67740;BME280;54536;50.090;14.420;2023-07-31T12:21:08;99002.25;;;25.47;37.98
67740;BME280;54536;50.090;14.420;2023-07-31T12:23:36;98998.75;;;25.46;38.78
67740;BME280;54536;50.090;14.420;2023-07-31T12:28:36;98992.22;;;25.26;39.03
67740;BME280;54536;50.090;14.420;2023-07-31T12:31:11;98985.72;;;25.38;38.63
67740;BME280;54536;50.090;14.420;2023-07-31T12:33:39;98986.03;;;26.26;36.64
67740;BME280;54536;50.090;14.420;2023-07-31T12:36:32;98980.16;;;26.29;36.55
67740;BME280;54536;50.090;14.420;2023-07-31T12:39:01;98980.34;;;26.06;37.15
67740;BME280;54536;50.090;14.420;2023-07-31T12:41:28;98973.41;;;26.10;36.68
67740;BME280;54536;50.090;14.420;2023-07-31T12:43:55;98968.19;;;26.03;37.21
67740;BME280;54536;50.090;14.420;2023-07-31T12:46:21;98974.00;;;25.95;36.98
67740;BME280;54536;50.090;14.420;2023-07-31T12:48:50;98974.56;;;25.97;36.73
67740;BME280;54536;50.090;14.420;2023-07-31T12:51:16;98972.41;;;26.16;36.08
67740;BME280;54536;50.090;14.420;2023-07-31T12:53:42;98972.47;;;26.21;35.86
67740;BME280;54536;50.090;14.420;2023-07-31T12:56:09;98965.91;;;26.34;35.96
67740;BME280;54536;50.090;14.420;2023-07-31T12:58:35;98962.94;;;26.52;35.36
67740;BME280;54536;50.090;14.420;2023-07-31T13:01:01;98964.28;;;27.21;34.08
67740;BME280;54536;50.090;14.420;2023-07-31T13:03:27;98953.50;;;27.26;33.97
67740;BME280;54536;50.090;14.420;2023-07-31T13:05:54;98957.16;;;27.42;33.40
67740;BME280;54536;50.090;14.420;2023-07-31T13:08:20;98955.34;;;27.80;32.99